Time;durP1;ratioP1;P1;durP2;ratioP2;P2;SDS_P1;SDS_P2;PMS_P1;PMS_P2;Temp;Humidity;BMP_temperature;BMP_pressure;BME280_temperature;BME280_humidity;BME280_pressure;Samples;Min_cycle;Max_cycle;Signal;HPM_P1;HPM_P2
2021/03/12 00:00:01;;;;;;;1.30;0.77;;;;;;;;;;5012957;28;20893;-71
2021/03/12 00:02:27;;;;;;;2.23;0.90;;;;;;;;;;5011423;28;20829;-71
2021/03/12 00:04:54;;;;;;;1.63;0.80;;;;;;;;;;5013058;28;20406;-71
2021/03/12 00:07:20;;;;;;;1.20;0.60;;;;;;;;;;5011760;28;20476;-71
2021/03/12 00:09:46;;;;;;;1.53;0.90;;;;;;;;;;5012933;28;20546;-71
2021/03/12 00:12:12;;;;;;;1.40;0.80;;;;;;;;;;5011913;28;20439;-71
2021/03/12 00:14:38;;;;;;;1.40;0.73;;;;;;;;;;5012953;28;20411;-71
2021/03/12 00:17:04;;;;;;;1.20;0.70;;;4.80;99.90;;;;;;5011790;28;20466;-71
2021/03/12 00:19:30;;;;;;;1.30;0.80;;;;;;;;;;5012864;28;20897;-72
2021/03/12 00:21:56;;;;;;;1.80;0.80;;;;;;;;;;5008951;28;20651;-72
2021/03/12 00:24:23;;;;;;;1.23;0.73;;;;;;;;;;5012963;28;20788;-73
2021/03/12 00:26:49;;;;;;;1.40;0.70;;;;;;;;;;5011768;28;20523;-72
2021/03/12 00:29:15;;;;;;;1.20;0.70;;;;;;;;;;5010739;28;20430;-72
2021/03/12 00:31:41;;;;;;;1.40;0.90;;;;;;;;;;5002322;28;20432;-72
2021/03/12 00:34:07;;;;;;;1.27;0.70;;;;;;;;;;5016779;28;20401;-72
2021/03/12 00:36:33;;;;;;;1.50;0.83;;;4.70;99.90;;;;;;5009315;28;20505;-71
2021/03/12 00:38:58;;;;;;;8.00;1.13;;;4.80;99.90;;;;;;5017033;28;20902;-71
2021/03/12 00:41:24;;;;;;;1.20;0.70;;;4.80;99.90;;;;;;5015626;28;20304;-71
2021/03/12 00:43:50;;;;;;;1.20;0.70;;;4.80;99.90;;;;;;5015329;28;20174;-71
2021/03/12 00:46:15;;;;;;;1.47;0.90;;;4.90;99.90;;;;;;5014367;28;20215;-71
2021/03/12 00:48:41;;;;;;;1.30;0.80;;;4.90;99.90;;;;;;5016647;28;20169;-70
2021/03/12 00:51:07;;;;;;;1.20;0.70;;;5.00;99.90;;;;;;5014052;28;20595;-71
2021/03/12 00:53:33;;;;;;;3.27;1.23;;;5.00;99.90;;;;;;5016292;28;20174;-71
2021/03/12 00:55:59;;;;;;;1.70;0.80;;;5.00;99.90;;;;;;5015815;28;20462;-73
2021/03/12 00:58:26;;;;;;;1.40;0.80;;;5.00;99.90;;;;;;5016233;28;20436;-72
2021/03/12 01:00:52;;;;;;;1.20;0.70;;;5.00;99.90;;;;;;5015147;28;20276;-72
2021/03/12 01:03:18;;;;;;;1.20;0.70;;;4.90;99.90;;;;;;5015483;28;20545;-72
2021/03/12 01:05:43;;;;;;;1.30;0.83;;;4.90;99.90;;;;;;5015971;28;20564;-72
2021/03/12 01:08:11;;;;;;;1.83;1.00;;;4.90;99.90;;;;;;5015407;28;20178;-71
2021/03/12 01:10:38;;;;;;;1.50;0.70;;;4.90;99.90;;;;;;5014728;28;20182;-71
2021/03/12 01:13:04;;;;;;;1.70;0.90;;;4.90;99.90;;;;;;5014868;28;20857;-71
2021/03/12 01:15:30;;;;;;;5.40;0.90;;;4.90;99.90;;;;;;5015755;28;20441;-72
2021/03/12 01:17:56;;;;;;;1.20;0.70;;;4.90;99.90;;;;;;5014304;28;20436;-71
2021/03/12 01:20:25;;;;;;;1.40;0.80;;;4.90;99.90;;;;;;5015736;28;20450;-71
2021/03/12 01:22:54;;;;;;;1.50;0.80;;;4.90;99.90;;;;;;5014081;28;20266;-70
2021/03/12 01:25:22;;;;;;;1.30;0.70;;;5.00;99.90;;;;;;5003445;28;20931;-70
2021/03/12 01:27:48;;;;;;;2.03;0.80;;;5.00;99.90;;;;;;5014564;28;20560;-70
2021/03/12 01:30:16;;;;;;;1.27;0.73;;;5.00;99.90;;;;;;5014716;28;20489;-69
2021/03/12 01:32:42;;;;;;;1.67;0.87;;;5.00;99.90;;;;;;5007386;28;20185;-70
2021/03/12 01:35:08;;;;;;;6.33;1.03;;;4.90;99.90;;;;;;5014486;28;20428;-69
2021/03/12 01:37:34;;;;;;;1.30;0.80;;;4.90;99.90;;;;;;5006047;28;20183;-69
2021/03/12 01:40:01;;;;;;;1.23;0.80;;;4.80;99.90;;;;;;5014638;28;20508;-69
2021/03/12 01:42:27;;;;;;;2.87;0.73;;;4.80;99.90;;;;;;5013898;28;20281;-70
2021/03/12 01:44:53;;;;;;;1.30;0.77;;;4.60;99.90;;;;;;5015458;28;20402;-70
2021/03/12 01:47:19;;;;;;;1.20;0.80;;;4.50;99.90;;;;;;5013846;28;20462;-70
2021/03/12 01:49:45;;;;;;;1.40;0.70;;;4.50;99.90;;;;;;5014409;28;20429;-71
2021/03/12 01:52:11;;;;;;;1.67;0.70;;;4.40;99.90;;;;;;5014236;28;20390;-71
2021/03/12 01:54:36;;;;;;;1.30;0.70;;;4.40;99.90;;;;;;5015337;28;20366;-71
2021/03/12 01:57:04;;;;;;;2.80;0.80;;;4.30;99.90;;;;;;5013829;28;20659;-71
2021/03/12 01:59:31;;;;;;;1.30;0.70;;;4.30;99.90;;;;;;5015116;28;20184;-71
2021/03/12 02:01:58;;;;;;;1.20;0.60;;;4.40;99.90;;;;;;5013883;28;20464;-71
2021/03/12 02:04:24;;;;;;;3.67;0.93;;;4.30;99.90;;;;;;5015016;28;20408;-71
2021/03/12 02:06:51;;;;;;;1.67;0.70;;;4.30;99.90;;;;;;5013791;28;20454;-71
2021/03/12 02:09:17;;;;;;;1.97;1.53;;;4.20;99.90;;;;;;5015091;28;20255;-71
2021/03/12 02:11:47;;;;;;;1.20;0.70;;;4.20;99.90;;;;;;5014316;28;20429;-71
2021/03/12 02:14:32;;;;;;;1.20;0.70;;;4.20;99.90;;;;;;5015232;28;20407;-71
2021/03/12 02:17:05;;;;;;;1.50;0.90;;;4.20;99.90;;;;;;5037158;23;20489;-84
2021/03/12 02:19:49;;;;;;;1.20;0.80;;;4.20;99.90;;;;;;5025435;28;20431;-83
2021/03/12 02:22:17;;;;;;;1.27;0.70;;;4.10;99.90;;;;;;5028803;28;20644;-85
2021/03/12 02:24:53;;;;;;;1.20;0.70;;;4.10;99.90;;;;;;5027267;28;20496;-85
2021/03/12 02:27:21;;;;;;;1.57;0.80;;;4.10;99.90;;;;;;5028863;28;20841;-85
2021/03/12 02:29:51;;;;;;;1.40;0.80;;;4.10;99.90;;;;;;5042703;28;20398;-84
2021/03/12 02:32:23;;;;;;;1.23;0.80;;;4.10;99.90;;;;;;5031536;28;20451;-85
2021/03/12 02:34:50;;;;;;;1.33;0.80;;;4.20;99.90;;;;;;5044071;28;20400;-85
2021/03/12 02:37:19;;;;;;;1.20;0.70;;;4.20;99.90;;;;;;5042919;28;20563;-85
2021/03/12 02:39:50;;;;;;;1.50;0.80;;;4.20;99.90;;;;;;5043914;28;20912;-84
2021/03/12 02:42:19;;;;;;;1.27;0.70;;;4.30;99.90;;;;;;5042637;28;20446;-85
2021/03/12 02:44:46;;;;;;;1.50;0.80;;;4.30;99.90;;;;;;5044831;28;20449;-84
2021/03/12 02:47:18;;;;;;;1.50;0.80;;;4.40;99.90;;;;;;5042465;28;20502;-84
2021/03/12 02:49:46;;;;;;;2.37;0.80;;;4.40;99.90;;;;;;5025322;28;20408;-85
2021/03/12 02:52:12;;;;;;;1.40;0.90;;;4.40;99.90;;;;;;5023618;28;20441;-83
2021/03/12 02:54:38;;;;;;;1.40;0.80;;;4.50;99.90;;;;;;5048674;28;20431;-86
2021/03/12 02:57:05;;;;;;;1.20;0.70;;;4.50;99.90;;;;;;5044332;28;20432;-85
2021/03/12 02:59:32;;;;;;;2.23;1.10;;;4.40;99.90;;;;;;5041693;28;20461;-84
2021/03/12 03:01:59;;;;;;;2.17;0.90;;;4.40;99.90;;;;;;5042567;28;20607;-86
2021/03/12 03:04:25;;;;;;;1.40;0.73;;;4.30;99.90;;;;;;5041672;28;20849;-85
2021/03/12 03:06:51;;;;;;;3.00;0.90;;;4.30;99.90;;;;;;5044431;28;20411;-85
2021/03/12 03:09:19;;;;;;;1.30;0.70;;;4.30;99.90;;;;;;5041635;28;21015;-85
2021/03/12 03:11:45;;;;;;;1.50;0.90;;;4.30;99.90;;;;;;5043970;28;20861;-85
2021/03/12 03:14:14;;;;;;;1.40;0.80;;;4.30;99.90;;;;;;5028836;28;20435;-85
2021/03/12 03:16:42;;;;;;;2.23;0.90;;;4.30;99.90;;;;;;5027353;28;20429;-84
2021/03/12 03:19:09;;;;;;;1.77;0.83;;;4.30;99.90;;;;;;5039949;28;20525;-85
2021/03/12 03:21:35;;;;;;;1.40;0.80;;;4.20;99.90;;;;;;5042872;28;20470;-83
2021/03/12 03:24:03;;;;;;;1.90;0.93;;;4.20;99.90;;;;;;5042457;28;20435;-83
2021/03/12 03:26:29;;;;;;;4.27;0.80;;;4.20;99.90;;;;;;5043031;28;20197;-84
2021/03/12 03:28:54;;;;;;;1.30;0.90;;;4.10;99.90;;;;;;5043169;28;20430;-84
2021/03/12 03:31:21;;;;;;;1.40;0.83;;;4.10;99.90;;;;;;5044265;28;20201;-84
2021/03/12 03:33:47;;;;;;;2.27;0.90;;;4.10;99.90;;;;;;5045254;28;20245;-84
2021/03/12 03:36:13;;;;;;;1.50;0.80;;;4.10;99.90;;;;;;5045809;28;20430;-85
2021/03/12 03:38:39;;;;;;;1.33;0.80;;;4.10;99.90;;;;;;5045740;28;20449;-85
2021/03/12 03:41:11;;;;;;;1.60;0.90;;;4.10;99.90;;;;;;5045678;28;20471;-85
2021/03/12 03:43:39;;;;;;;1.20;0.80;;;4.20;99.90;;;;;;5044212;28;20428;-84
2021/03/12 03:46:07;;;;;;;2.70;0.80;;;4.20;99.90;;;;;;5045647;28;20422;-83
2021/03/12 03:48:35;;;;;;;2.50;1.10;;;4.30;99.90;;;;;;5045713;28;20429;-85
2021/03/12 03:51:05;;;;;;;1.40;0.80;;;4.30;99.90;;;;;;5045719;28;20435;-84
2021/03/12 03:53:31;;;;;;;3.50;1.13;;;4.40;99.90;;;;;;5048805;28;20427;-85
2021/03/12 03:55:59;;;;;;;1.50;0.90;;;4.40;99.90;;;;;;5045846;28;20488;-84
2021/03/12 03:58:26;;;;;;;1.40;1.00;;;4.50;99.90;;;;;;5043852;28;20499;-85
2021/03/12 04:00:52;;;;;;;2.53;0.90;;;4.50;99.90;;;;;;5045550;28;20954;-84
2021/03/12 04:03:18;;;;;;;1.30;0.70;;;4.60;99.90;;;;;;5042378;28;20435;-85
2021/03/12 04:05:45;;;;;;;2.63;1.00;;;4.60;99.90;;;;;;5044001;28;20875;-85
2021/03/12 04:08:11;;;;;;;1.30;0.70;;;4.70;99.90;;;;;;5042226;28;20433;-83
2021/03/12 04:10:37;;;;;;;1.73;0.73;;;4.70;99.90;;;;;;5041215;28;20493;-85
2021/03/12 04:13:04;;;;;;;1.60;0.80;;;4.80;99.90;;;;;;5043981;28;20181;-84
2021/03/12 04:15:30;;;;;;;1.43;0.80;;;4.80;99.90;;;;;;5042715;28;20479;-84
2021/03/12 04:17:56;;;;;;;1.70;0.93;;;4.80;99.90;;;;;;5045103;28;20783;-84
2021/03/12 04:20:23;;;;;;;1.53;0.80;;;4.90;99.90;;;;;;5044351;28;20464;-84
2021/03/12 04:22:50;;;;;;;1.57;0.80;;;4.90;99.90;;;;;;5043974;28;20457;-84
2021/03/12 04:25:16;;;;;;;1.40;0.80;;;4.90;99.90;;;;;;5041416;28;20475;-85
2021/03/12 04:27:43;;;;;;;1.30;0.73;;;4.90;99.90;;;;;;5043722;28;20413;-85
2021/03/12 04:30:10;;;;;;;1.53;0.90;;;4.90;99.90;;;;;;5042762;28;20444;-84
2021/03/12 04:32:37;;;;;;;2.37;1.03;;;5.00;99.90;;;;;;5044368;28;20483;-85
2021/03/12 04:35:05;;;;;;;1.30;0.80;;;5.00;99.90;;;;;;5043429;28;20491;-85
2021/03/12 04:37:31;;;;;;;1.60;0.80;;;4.90;99.90;;;;;;5043750;28;20435;-86
2021/03/12 04:40:04;;;;;;;1.20;0.70;;;4.90;99.90;;;;;;5043402;28;20437;-85
2021/03/12 04:42:31;;;;;;;2.90;0.90;;;4.90;99.90;;;;;;5043305;28;20500;-85
2021/03/12 04:44:57;;;;;;;5.87;0.90;;;4.80;99.90;;;;;;5041579;28;20458;-85
2021/03/12 04:47:23;;;;;;;2.70;0.90;;;4.80;99.90;;;;;;5043873;28;20400;-85
2021/03/12 04:49:49;;;;;;;1.73;0.90;;;4.70;99.90;;;;;;5043001;28;20920;-86
2021/03/12 04:52:17;;;;;;;3.00;1.00;;;4.70;99.90;;;;;;5042798;28;20422;-85
2021/03/12 04:54:48;;;;;;;2.37;1.03;;;4.70;99.90;;;;;;5041649;28;20500;-84
2021/03/12 04:57:17;;;;;;;1.60;1.00;;;4.70;99.90;;;;;;5037459;28;20431;-85
2021/03/12 04:59:44;;;;;;;1.30;0.70;;;4.70;99.90;;;;;;5042112;28;20432;-85
2021/03/12 05:02:11;;;;;;;3.10;0.90;;;4.70;99.90;;;;;;5043600;28;20447;-85
2021/03/12 05:04:38;;;;;;;2.40;0.97;;;4.60;99.90;;;;;;5044101;28;20539;-86
2021/03/12 05:07:04;;;;;;;7.20;1.20;;;4.50;99.90;;;;;;5045264;28;20402;-85
2021/03/12 05:09:30;;;;;;;1.80;1.10;;;4.40;99.90;;;;;;5043645;28;20428;-86
2021/03/12 05:11:56;;;;;;;3.00;1.23;;;4.40;99.90;;;;;;5046200;28;20475;-85
2021/03/12 05:14:22;;;;;;;3.37;1.20;;;4.40;99.90;;;;;;5044476;28;20176;-85
2021/03/12 05:16:47;;;;;;;8.30;1.60;;;4.30;99.90;;;;;;5049123;28;20198;-85
2021/03/12 05:19:13;;;;;;;3.70;1.10;;;4.30;99.90;;;;;;5048808;28;20182;-85
2021/03/12 05:21:39;;;;;;;5.33;1.10;;;4.30;99.90;;;;;;5049604;28;20281;-85
2021/03/12 05:24:05;;;;;;;2.57;1.00;;;4.30;99.90;;;;;;5033697;28;20179;-85
2021/03/12 05:26:31;;;;;;;4.23;1.00;;;4.30;99.90;;;;;;5049292;28;20547;-85
2021/03/12 05:28:57;;;;;;;4.40;1.20;;;4.30;99.90;;;;;;5044952;28;20430;-84
2021/03/12 05:31:32;;;;;;;4.57;1.57;;;4.40;99.90;;;;;;5043715;28;20228;-85
2021/03/12 05:33:58;;;;;;;2.93;1.10;;;4.40;99.90;;;;;;5030558;28;20187;-85
2021/03/12 05:36:38;;;;;;;2.10;1.00;;;4.40;99.90;;;;;;5049480;28;20455;-85
2021/03/12 05:39:24;;;;;;;2.73;1.13;;;4.40;99.90;;;;;;5048478;28;20184;-84
2021/03/12 05:41:53;;;;;;;1.87;1.07;;;4.30;99.90;;;;;;5029964;28;20470;-85
2021/03/12 05:44:19;;;;;;;1.50;1.03;;;4.30;99.90;;;;;;5032821;28;20559;-85
2021/03/12 05:46:48;;;;;;;5.77;1.77;;;4.30;99.90;;;;;;5047110;28;20608;-83
2021/03/12 05:49:30;;;;;;;8.53;1.20;;;4.30;99.90;;;;;;5039124;28;20185;-85
2021/03/12 05:51:56;;;;;;;2.67;1.33;;;4.40;99.90;;;;;;5050318;28;20468;-85
2021/03/12 05:54:21;;;;;;;2.40;1.27;;;4.50;99.90;;;;;;5045592;28;20437;-85
2021/03/12 05:56:47;;;;;;;1.60;1.20;;;4.60;99.90;;;;;;5045997;28;20186;-85
2021/03/12 05:59:13;;;;;;;2.07;1.00;;;4.70;99.90;;;;;;5043595;28;20184;-85
2021/03/12 06:01:41;;;;;;;1.40;0.83;;;4.80;99.90;;;;;;5047004;28;20469;-85
2021/03/12 06:04:07;;;;;;;2.50;1.03;;;5.00;99.90;;;;;;5042435;28;20178;-85
2021/03/12 06:06:35;;;;;;;2.07;1.10;;;5.00;99.90;;;;;;5037536;28;20801;-84
2021/03/12 06:09:03;;;;;;;4.23;0.90;;;5.10;99.90;;;;;;5035446;28;20273;-84
2021/03/12 06:11:29;;;;;;;2.03;1.07;;;5.20;99.90;;;;;;5036398;28;20494;-83
2021/03/12 06:13:56;;;;;;;5.87;3.50;;;5.20;99.90;;;;;;5034423;28;20425;-82
2021/03/12 06:16:23;;;;;;;6.13;2.07;;;5.20;99.90;;;;;;5035882;28;20210;-83
2021/03/12 06:19:17;;;;;;;2.70;1.20;;;5.30;99.90;;;;;;5034416;28;20577;-83
2021/03/12 06:21:45;;;;;;;9.53;1.50;;;5.30;99.90;;;;;;5041556;22;20484;-70
2021/03/12 06:24:25;;;;;;;3.80;1.00;;;5.30;99.90;;;;;;4992719;28;20845;-70
2021/03/12 06:26:51;;;;;;;3.57;1.93;;;5.30;99.90;;;;;;4992990;28;20699;-73
2021/03/12 06:29:16;;;;;;;2.07;0.93;;;5.30;99.90;;;;;;4993883;28;20416;-74
2021/03/12 06:31:52;;;;;;;2.30;1.40;;;5.40;99.90;;;;;;4995813;28;20544;-74
2021/03/12 06:34:18;;;;;;;7.50;1.57;;;5.40;99.90;;;;;;4994494;28;20770;-75
2021/03/12 06:36:44;;;;;;;2.93;1.23;;;5.40;99.90;;;;;;4995155;28;20951;-73
2021/03/12 06:39:10;;;;;;;5.47;1.37;;;5.50;99.90;;;;;;4994071;28;20407;-74
2021/03/12 06:41:40;;;;;;;1.40;0.93;;;5.50;99.90;;;;;;4994987;28;20504;-72
2021/03/12 06:44:32;;;;;;;3.07;1.53;;;5.50;99.90;;;;;;4994054;28;20558;-72
2021/03/12 06:46:59;;;;;;;3.10;1.00;;;5.50;99.90;;;;;;4995267;28;20954;-75
2021/03/12 06:49:24;;;;;;;5.57;1.70;;;5.60;99.90;;;;;;4993487;28;20427;-73
2021/03/12 06:51:56;;;;;;;2.57;0.90;;;5.60;99.90;;;;;;4998834;28;20423;-73
2021/03/12 06:54:22;;;;;;;2.03;1.10;;;5.60;99.90;;;;;;4995316;28;20215;-77
2021/03/12 06:56:48;;;;;;;2.73;1.40;;;5.60;99.90;;;;;;4995011;28;20442;-74
2021/03/12 06:59:23;;;;;;;2.23;1.20;;;5.70;99.90;;;;;;4994496;28;20402;-75
2021/03/12 07:02:00;;;;;;;4.60;1.43;;;5.70;99.90;;;;;;4995680;28;20183;-71
2021/03/12 07:04:28;;;;;;;2.33;1.40;;;5.80;99.90;;;;;;4993782;28;20434;-72
2021/03/12 07:06:54;;;;;;;2.90;1.40;;;5.80;99.90;;;;;;4994453;28;20525;-76
2021/03/12 07:09:22;;;;;;;4.57;1.90;;;5.80;99.90;;;;;;4993153;28;20492;-73
2021/03/12 07:12:02;;;;;;;2.60;1.00;;;5.90;99.90;;;;;;4994004;28;20446;-74
2021/03/12 07:14:30;;;;;;;3.80;1.50;;;5.90;99.90;;;;;;4990222;28;20566;-70
2021/03/12 07:16:59;;;;;;;3.93;1.40;;;6.00;99.90;;;;;;4996999;28;20467;-69
2021/03/12 07:19:25;;;;;;;3.28;1.30;;;6.00;99.90;;;;;;4994581;28;20492;-72
2021/03/12 07:21:57;;;;;;;2.87;1.10;;;6.00;99.90;;;;;;4995630;28;20463;-72
2021/03/12 07:24:24;;;;;;;2.93;1.27;;;5.90;99.90;;;;;;4981293;28;20224;-72
2021/03/12 07:27:01;;;;;;;2.75;0.98;;;5.80;99.90;;;;;;4995051;28;20496;-72
2021/03/12 07:29:31;;;;;;;3.53;0.90;;;5.80;99.90;;;;;;4992801;28;20177;-74
2021/03/12 07:31:59;;;;;;;2.00;0.90;;;5.80;99.90;;;;;;4995142;28;20452;-76
2021/03/12 07:34:27;;;;;;;3.00;1.37;;;5.80;99.90;;;;;;4994378;28;20607;-76
2021/03/12 07:36:57;;;;;;;2.00;1.00;;;5.90;99.90;;;;;;4976184;28;20431;-74
2021/03/12 07:39:34;;;;;;;3.93;1.20;;;5.90;99.90;;;;;;4980370;28;20516;-73
2021/03/12 07:42:00;;;;;;;3.10;1.10;;;5.90;99.90;;;;;;4989466;28;20485;-72
2021/03/12 07:44:27;;;;;;;1.50;0.90;;;6.00;99.90;;;;;;4990335;28;20489;-72
2021/03/12 07:46:53;;;;;;;3.50;1.10;;;6.10;99.90;;;;;;4994296;28;20479;-72
2021/03/12 07:49:28;;;;;;;3.40;1.20;;;6.20;99.90;;;;;;4993598;28;20916;-74
2021/03/12 07:51:54;;;;;;;4.00;1.07;;;6.20;99.90;;;;;;4975983;28;20403;-73
2021/03/12 07:54:35;;;;;;;2.60;1.07;;;6.20;99.90;;;;;;4989322;28;20426;-72
2021/03/12 07:57:11;;;;;;;3.10;1.27;;;6.20;99.90;;;;;;4991160;28;20438;-72
2021/03/12 07:59:46;;;;;;;2.00;0.90;;;6.40;99.90;;;;;;4992700;28;20450;-73
2021/03/12 08:02:16;;;;;;;1.50;1.00;;;6.50;99.90;;;;;;4994112;28;20462;-73
2021/03/12 08:04:43;;;;;;;1.73;0.93;;;6.50;99.90;;;;;;4994622;28;20456;-73
2021/03/12 08:07:18;;;;;;;2.33;1.13;;;6.60;99.90;;;;;;4993971;28;20879;-72
2021/03/12 08:09:45;;;;;;;5.83;1.47;;;6.70;99.90;;;;;;4993438;28;22892;-72
2021/03/12 08:12:33;;;;;;;2.03;1.23;;;6.70;99.90;;;;;;4991907;28;20524;-72
2021/03/12 08:15:19;;;;;;;4.90;1.20;;;6.70;99.90;;;;;;4986532;28;20425;-72
2021/03/12 08:17:46;;;;;;;2.07;1.03;;;6.60;99.90;;;;;;5030809;23;20504;-73
2021/03/12 08:20:36;;;;;;;3.97;1.20;;;6.50;99.90;;;;;;5029684;28;20448;-73
2021/03/12 08:23:02;;;;;;;2.23;1.10;;;6.50;99.90;;;;;;5028609;28;20425;-73
2021/03/12 08:25:40;;;;;;;3.10;1.03;;;6.40;99.90;;;;;;5038501;28;20435;-73
2021/03/12 08:28:06;;;;;;;3.00;1.20;;;6.40;99.90;;;;;;5047229;28;20459;-73
2021/03/12 08:30:34;;;;;;;4.27;1.10;;;6.40;99.90;;;;;;5037953;28;20527;-72
2021/03/12 08:33:22;;;;;;;1.90;1.20;;;6.40;99.90;;;;;;5035199;28;20258;-74
2021/03/12 08:35:49;;;;;;;3.03;1.20;;;6.40;99.90;;;;;;5035112;28;20430;-74
2021/03/12 08:38:41;;;;;;;3.60;1.63;;;6.40;99.90;;;;;;5030597;28;20503;-74
2021/03/12 08:41:12;;;;;;;5.77;1.37;;;6.50;99.90;;;;;;5043215;28;20459;-72
2021/03/12 08:43:50;;;;;;;2.87;1.20;;;6.40;99.90;;;;;;5035959;28;20432;-74
2021/03/12 08:46:23;;;;;;;5.40;1.20;;;6.40;99.90;;;;;;5028776;28;20519;-74
2021/03/12 08:48:51;;;;;;;1.70;1.07;;;6.50;99.90;;;;;;5029439;28;20449;-73
2021/03/12 08:51:25;;;;;;;3.63;0.90;;;6.60;99.90;;;;;;5037068;28;20836;-73
2021/03/12 08:53:59;;;;;;;5.07;1.20;;;6.60;99.90;;;;;;5033389;28;20443;-74
2021/03/12 08:56:36;;;;;;;4.73;1.17;;;6.70;99.90;;;;;;5034219;28;20937;-73
2021/03/12 08:59:03;;;;;;;4.53;1.27;;;6.80;99.90;;;;;;5034805;28;20610;-74
2021/03/12 09:01:31;;;;;;;1.80;1.20;;;6.90;99.90;;;;;;5032672;28;20506;-74
2021/03/12 09:04:04;;;;;;;2.73;1.13;;;7.00;99.90;;;;;;5034467;28;20526;-74
2021/03/12 09:06:34;;;;;;;2.50;1.00;;;7.10;99.90;;;;;;5037474;28;20807;-73
2021/03/12 09:09:00;;;;;;;4.20;1.00;;;7.30;99.90;;;;;;5033640;28;20452;-74
2021/03/12 09:11:26;;;;;;;3.30;1.10;;;7.30;99.90;;;;;;5021549;28;20483;-74
2021/03/12 09:13:54;;;;;;;2.80;1.30;;;7.40;99.90;;;;;;5015746;28;20773;-73
2021/03/12 09:16:25;;;;;;;2.67;1.10;;;7.50;99.90;;;;;;5040750;28;20501;-73
2021/03/12 09:18:53;;;;;;;3.23;1.10;;;7.70;99.90;;;;;;5050749;28;20780;-73
2021/03/12 09:21:20;;;;;;;5.40;2.10;;;8.00;99.90;;;;;;5036150;28;20453;-74
2021/03/12 09:23:49;;;;;;;4.40;2.43;;;8.10;99.90;;;;;;5033492;28;20419;-73
2021/03/12 09:26:16;;;;;;;2.47;1.20;;;8.20;99.90;;;;;;5042666;28;20429;-73
2021/03/12 09:28:43;;;;;;;3.00;0.90;;;8.20;99.90;;;;;;5032983;28;20434;-74
2021/03/12 09:31:10;;;;;;;1.53;0.90;;;8.30;99.90;;;;;;5043441;28;20465;-73
2021/03/12 09:33:40;;;;;;;4.70;1.40;;;8.40;99.90;;;;;;5054691;28;20775;-74
2021/03/12 09:36:28;;;;;;;5.80;1.50;;;8.60;99.90;;;;;;5052964;28;20451;-73
2021/03/12 09:39:20;;;;;;;3.17;1.10;;;8.60;99.90;;;;;;5054573;28;20409;-73
2021/03/12 09:42:00;;;;;;;2.93;1.30;;;8.40;99.90;;;;;;5051636;28;20451;-73
2021/03/12 09:44:27;;;;;;;6.13;1.60;;;8.50;99.90;;;;;;5054865;28;20484;-73
2021/03/12 09:46:55;;;;;;;2.60;1.00;;;8.70;99.90;;;;;;5033742;28;20449;-73
2021/03/12 09:49:22;;;;;;;3.10;1.27;;;9.00;99.90;;;;;;5033203;28;20834;-74
2021/03/12 09:51:51;;;;;;;2.00;0.83;;;9.30;99.90;;;;;;5033594;28;20437;-74
2021/03/12 09:54:18;;;;;;;3.83;1.60;;;9.50;99.90;;;;;;5034866;28;20497;-73
2021/03/12 09:56:52;;;;;;;3.20;1.50;;;9.40;99.90;;;;;;5043981;28;20442;-73
2021/03/12 09:59:26;;;;;;;2.23;1.00;;;9.40;99.90;;;;;;5047241;28;20856;-73
2021/03/12 10:01:52;;;;;;;7.50;1.37;;;9.30;99.90;;;;;;5031688;28;20861;-74
2021/03/12 10:04:36;;;;;;;5.73;1.83;;;9.20;99.90;;;;;;5034416;28;20465;-74
2021/03/12 10:07:08;;;;;;;3.20;1.00;;;9.20;99.90;;;;;;5042404;28;20456;-74
2021/03/12 10:09:39;;;;;;;2.37;1.13;;;9.30;99.90;;;;;;5034375;28;20391;-73
2021/03/12 10:12:13;;;;;;;4.27;0.87;;;9.40;99.90;;;;;;5048915;28;20444;-73
2021/03/12 10:14:41;;;;;;;3.10;1.00;;;9.50;99.90;;;;;;5035086;28;20748;-73
2021/03/12 10:17:16;;;;;;;1.90;1.03;;;9.60;99.90;;;;;;5047466;28;20468;-74
2021/03/12 10:19:49;;;;;;;4.20;1.00;;;9.60;99.90;;;;;;5054342;28;20767;-74
2021/03/12 10:22:21;;;;;;;1.93;0.90;;;9.60;99.90;;;;;;5035706;28;20872;-73
2021/03/12 10:25:07;;;;;;;5.23;1.07;;;9.60;99.90;;;;;;5032465;28;20754;-73
2021/03/12 10:27:48;;;;;;;2.70;1.13;;;9.50;99.90;;;;;;5031837;28;20868;-73
2021/03/12 10:30:17;;;;;;;1.57;0.80;;;9.80;99.90;;;;;;5027870;28;20429;-75
2021/03/12 10:32:47;;;;;;;2.90;0.97;;;10.00;99.90;;;;;;5032552;28;20957;-73
2021/03/12 10:35:16;;;;;;;22.97;2.43;;;10.20;99.90;;;;;;5030883;28;20424;-75
2021/03/12 10:37:42;;;;;;;4.27;1.10;;;10.10;99.90;;;;;;5039697;28;20492;-74
2021/03/12 10:40:08;;;;;;;3.30;1.03;;;10.00;99.90;;;;;;5033373;28;20453;-74
2021/03/12 10:42:34;;;;;;;4.67;1.47;;;9.80;99.90;;;;;;5040286;28;20229;-74
2021/03/12 10:45:32;;;;;;;4.47;1.00;;;9.70;99.90;;;;;;5026591;28;20941;-73
2021/03/12 10:48:04;;;;;;;2.53;1.27;;;9.40;99.90;;;;;;5031343;28;20835;-74
2021/03/12 10:50:33;;;;;;;1.80;0.90;;;9.40;99.90;;;;;;5031096;28;20433;-74
2021/03/12 10:53:11;;;;;;;2.00;1.20;;;9.40;99.90;;;;;;5038495;28;20939;-74
2021/03/12 10:55:49;;;;;;;2.23;1.27;;;9.30;99.90;;;;;;5039004;28;20427;-74
2021/03/12 10:58:22;;;;;;;4.53;1.20;;;9.40;99.90;;;;;;5053259;28;20982;-74
2021/03/12 11:01:03;;;;;;;4.10;0.97;;;9.50;99.90;;;;;;5041015;28;20451;-74
2021/03/12 11:03:29;;;;;;;1.93;1.10;;;9.60;99.90;;;;;;5039142;28;20444;-73
2021/03/12 11:05:54;;;;;;;2.87;1.13;;;9.40;99.90;;;;;;5035505;28;20496;-73
2021/03/12 11:08:21;;;;;;;2.60;1.07;;;9.40;99.90;;;;;;5036297;28;20225;-73
2021/03/12 11:10:47;;;;;;;3.83;1.20;;;9.20;99.90;;;;;;5033417;28;20226;-73
2021/03/12 11:13:12;;;;;;;4.07;1.10;;;8.90;99.90;;;;;;5052537;28;20811;-74
2021/03/12 11:15:38;;;;;;;5.50;1.30;;;8.80;99.90;;;;;;5049383;28;20412;-74
2021/03/12 11:18:04;;;;;;;6.03;1.43;;;8.70;99.90;;;;;;5041813;28;20620;-73
2021/03/12 11:20:30;;;;;;;3.23;1.27;;;8.80;99.90;;;;;;5031515;28;20190;-75
2021/03/12 11:22:56;;;;;;;5.47;1.30;;;9.10;99.90;;;;;;5032172;28;20680;-74
2021/03/12 11:25:22;;;;;;;4.00;1.40;;;9.20;99.90;;;;;;5028167;28;20202;-74
2021/03/12 11:27:48;;;;;;;2.87;1.50;;;9.20;99.90;;;;;;5048821;28;20484;-74
2021/03/12 11:30:17;;;;;;;2.43;1.00;;;9.00;99.90;;;;;;5037300;28;20172;-73
2021/03/12 11:32:43;;;;;;;2.90;1.17;;;8.90;99.90;;;;;;5031186;28;20940;-73
2021/03/12 11:35:10;;;;;;;8.97;1.47;;;9.10;99.90;;;;;;5030787;28;20411;-74
2021/03/12 11:37:36;;;;;;;1.60;0.80;;;9.10;99.90;;;;;;5047202;28;20454;-74
2021/03/12 11:40:02;;;;;;;2.50;1.17;;;9.30;99.90;;;;;;5044090;28;20426;-74
2021/03/12 11:42:28;;;;;;;4.13;1.40;;;9.50;99.90;;;;;;5030591;28;20469;-74
2021/03/12 11:44:55;;;;;;;2.73;1.20;;;9.70;99.90;;;;;;5032178;28;20440;-74
2021/03/12 11:47:20;;;;;;;2.53;0.90;;;9.80;99.90;;;;;;5044397;28;20463;-74
2021/03/12 11:49:48;;;;;;;2.00;0.90;;;9.90;99.90;;;;;;5032895;28;20418;-74
2021/03/12 11:52:15;;;;;;;4.10;1.40;;;9.80;99.90;;;;;;5031528;28;20187;-74
2021/03/12 11:54:41;;;;;;;2.60;1.00;;;9.80;99.90;;;;;;5030690;28;20461;-74
2021/03/12 11:57:07;;;;;;;4.50;1.20;;;9.70;99.90;;;;;;5030856;28;20455;-75
2021/03/12 11:59:33;;;;;;;2.57;1.07;;;9.70;99.90;;;;;;5030757;28;20513;-74
2021/03/12 12:02:00;;;;;;;6.43;1.20;;;9.60;99.90;;;;;;5039470;28;20285;-74
2021/03/12 12:04:27;;;;;;;2.70;1.10;;;9.40;99.90;;;;;;5050405;28;20459;-74
2021/03/12 12:06:53;;;;;;;5.00;1.50;;;9.20;99.90;;;;;;5040793;28;20458;-74
2021/03/12 12:09:20;;;;;;;2.30;0.97;;;9.20;99.90;;;;;;5041118;28;20836;-74
2021/03/12 12:11:45;;;;;;;3.70;0.90;;;9.20;99.90;;;;;;5029956;28;20444;-73
2021/03/12 12:14:11;;;;;;;3.73;1.03;;;9.30;99.90;;;;;;5031309;28;20439;-74
2021/03/12 12:16:37;;;;;;;2.67;1.20;;;9.30;99.90;;;;;;5036397;28;20306;-74
2021/03/12 12:19:08;;;;;;;4.30;1.00;;;9.30;99.90;;;;;;5038948;28;20555;-73
2021/03/12 12:21:34;;;;;;;3.93;1.27;;;9.30;99.90;;;;;;5030607;28;20839;-74
2021/03/12 12:24:00;;;;;;;2.70;1.10;;;9.30;99.90;;;;;;5031808;28;20418;-73
2021/03/12 12:26:25;;;;;;;6.43;1.23;;;9.40;99.90;;;;;;5032727;28;20465;-74
2021/03/12 12:28:51;;;;;;;1.80;1.10;;;9.50;99.90;;;;;;5055864;28;20188;-74
2021/03/12 12:31:17;;;;;;;2.60;1.33;;;9.50;99.90;;;;;;5019950;28;20195;-74
2021/03/12 12:33:44;;;;;;;2.83;1.00;;;9.40;99.90;;;;;;5033737;28;20185;-73
2021/03/12 12:36:11;;;;;;;2.63;1.20;;;9.30;99.90;;;;;;5034505;28;20181;-73
2021/03/12 12:38:37;;;;;;;2.67;1.27;;;9.40;99.90;;;;;;5035951;28;20416;-73
2021/03/12 12:41:03;;;;;;;2.30;1.13;;;9.70;99.90;;;;;;5034681;28;20455;-74
2021/03/12 12:43:29;;;;;;;3.77;1.10;;;9.80;99.90;;;;;;5043795;28;20839;-74
2021/03/12 12:45:54;;;;;;;1.80;0.97;;;9.90;99.90;;;;;;5036730;28;20429;-74
2021/03/12 12:48:20;;;;;;;2.60;1.00;;;9.90;99.90;;;;;;5049308;28;20581;-73
2021/03/12 12:50:46;;;;;;;4.40;1.03;;;9.80;99.90;;;;;;5032900;28;20369;-74
2021/03/12 12:53:11;;;;;;;4.17;1.10;;;9.60;99.90;;;;;;5026947;28;20200;-73
2021/03/12 12:55:37;;;;;;;2.97;0.80;;;9.50;99.90;;;;;;5035637;28;20188;-74
2021/03/12 12:58:03;;;;;;;2.60;1.03;;;9.60;99.90;;;;;;5018345;28;20599;-73
2021/03/12 13:00:29;;;;;;;2.60;1.40;;;9.60;99.90;;;;;;5016206;28;20467;-74
2021/03/12 13:02:55;;;;;;;1.77;0.97;;;9.70;99.90;;;;;;5029393;28;20608;-73
2021/03/12 13:05:20;;;;;;;1.53;0.93;;;9.60;99.60;;;;;;5035365;28;20253;-73
2021/03/12 13:07:47;;;;;;;2.60;1.13;;;9.50;99.90;;;;;;5028453;28;20292;-73